createdAt,value
2018-09-12T00:00:58.228Z,16.37
2018-09-12T00:03:26.805Z,15.87
2018-09-12T00:05:55.405Z,17.43
2018-09-12T00:08:24.596Z,16.87
2018-09-12T00:10:53.096Z,16.87
2018-09-12T00:13:21.609Z,17.60
2018-09-12T00:15:50.202Z,17.57
2018-09-12T00:18:18.732Z,15.60
2018-09-12T00:20:47.261Z,18.03
2018-09-12T00:23:15.954Z,16.60
2018-09-12T00:25:44.503Z,14.90
2018-09-12T00:28:13.061Z,16.10
2018-09-12T00:30:41.892Z,16.57
2018-09-12T00:33:10.437Z,15.03
2018-09-12T00:35:39.020Z,14.80
2018-09-12T00:38:07.569Z,16.17
2018-09-12T00:40:36.100Z,14.70
2018-09-12T00:43:04.754Z,16.17
2018-09-12T00:45:33.263Z,15.00
2018-09-12T00:48:01.830Z,16.13
2018-09-12T00:50:30.494Z,19.77
2018-09-12T00:52:59.047Z,20.33
2018-09-12T00:55:27.602Z,18.03
2018-09-12T00:57:56.163Z,17.63
2018-09-12T01:00:24.677Z,16.37
2018-09-12T01:02:53.200Z,17.30
2018-09-12T01:05:21.763Z,17.43
2018-09-12T01:07:50.326Z,14.87
2018-09-12T01:10:18.851Z,14.83
2018-09-12T01:12:47.937Z,16.40
2018-09-12T01:15:16.607Z,14.07
2018-09-12T01:17:45.093Z,15.33
2018-09-12T01:20:13.590Z,14.60
2018-09-12T01:22:42.145Z,11.80
2018-09-12T01:25:10.693Z,16.20
2018-09-12T01:27:39.209Z,14.27
2018-09-12T01:30:09.821Z,15.83
2018-09-12T01:32:38.399Z,14.47
2018-09-12T01:35:06.919Z,17.40
2018-09-12T01:37:35.401Z,16.97
2018-09-12T01:40:04.217Z,14.93
2018-09-12T01:42:32.762Z,14.77
2018-09-12T01:45:01.667Z,16.07
2018-09-12T01:47:30.429Z,14.07
2018-09-12T01:49:59.057Z,17.57
2018-09-12T01:52:27.589Z,15.53
2018-09-12T01:54:56.151Z,14.47
2018-09-12T01:57:24.663Z,14.20
2018-09-12T01:59:53.243Z,13.23
2018-09-12T02:02:21.845Z,17.30
2018-09-12T02:04:50.332Z,14.60
2018-09-12T02:07:19.002Z,16.77
2018-09-12T02:09:47.566Z,14.93
2018-09-12T02:12:16.490Z,17.10
2018-09-12T02:14:44.995Z,15.13
2018-09-12T02:17:13.593Z,14.97
2018-09-12T02:19:42.174Z,16.20
2018-09-12T02:22:10.701Z,17.77
2018-09-12T02:24:39.813Z,15.17
2018-09-12T02:27:08.299Z,15.27
2018-09-12T02:29:37.209Z,17.20
2018-09-12T02:32:05.766Z,15.37
2018-09-12T02:34:34.346Z,18.43
2018-09-12T02:37:02.859Z,17.00
2018-09-12T02:39:31.440Z,18.30
2018-09-12T02:42:00.093Z,15.00
2018-09-12T02:44:28.770Z,16.40
2018-09-12T02:46:57.309Z,17.83
2018-09-12T02:49:25.902Z,16.97
2018-09-12T02:51:54.394Z,18.57
2018-09-12T02:54:23.000Z,15.70
2018-09-12T02:56:51.550Z,16.07
2018-09-12T02:59:20.112Z,14.37
2018-09-12T03:01:48.649Z,16.30
2018-09-12T03:04:17.109Z,14.30
2018-09-12T03:06:46.662Z,14.73
2018-09-12T03:09:15.241Z,17.03
2018-09-12T03:11:43.813Z,14.97
2018-09-12T03:14:13.808Z,15.53
2018-09-12T03:16:42.481Z,15.23
2018-09-12T03:19:11.046Z,18.30
2018-09-12T03:21:39.699Z,15.40
2018-09-12T03:24:08.881Z,14.50
2018-09-12T03:26:37.482Z,19.40
2018-09-12T03:29:06.041Z,17.00
2018-09-12T03:31:34.639Z,15.73
2018-09-12T03:34:03.249Z,15.53
2018-09-12T03:36:31.787Z,12.93
2018-09-12T03:39:00.364Z,16.83
2018-09-12T03:41:29.017Z,17.60
2018-09-12T03:43:58.555Z,16.73
2018-09-12T03:46:27.121Z,13.13
2018-09-12T03:48:55.974Z,15.43
2018-09-12T03:51:24.633Z,15.93
2018-09-12T03:53:53.245Z,15.73
2018-09-12T03:56:21.886Z,15.63
2018-09-12T03:58:50.439Z,14.13
2018-09-12T04:01:19.029Z,15.20
2018-09-12T04:03:47.766Z,17.03
2018-09-12T04:06:16.468Z,16.20
2018-09-12T04:08:45.014Z,15.03
2018-09-12T04:11:13.685Z,14.90
2018-09-12T04:13:42.277Z,16.83
2018-09-12T04:16:10.842Z,16.60
2018-09-12T04:18:39.402Z,14.70
2018-09-12T04:21:07.946Z,14.87
2018-09-12T04:23:36.537Z,16.70
2018-09-12T04:26:05.106Z,15.23
2018-09-12T04:28:33.654Z,13.83
2018-09-12T04:31:02.205Z,17.20
2018-09-12T04:33:30.777Z,15.67
2018-09-12T04:35:59.364Z,15.43
2018-09-12T04:38:27.916Z,12.77
2018-09-12T04:40:57.128Z,16.87
2018-09-12T04:43:25.709Z,15.27
2018-09-12T04:45:54.234Z,13.97
2018-09-12T04:48:22.748Z,13.93
2018-09-12T04:50:51.303Z,12.53
2018-09-12T04:53:19.857Z,12.63
2018-09-12T04:55:48.458Z,11.87
2018-09-12T04:58:16.957Z,13.33
2018-09-12T05:00:45.462Z,12.80
2018-09-12T05:03:13.990Z,14.20
2018-09-12T05:05:42.525Z,14.43
2018-09-12T05:08:11.021Z,14.37
2018-09-12T05:10:39.535Z,13.13
2018-09-12T05:13:08.122Z,12.37
2018-09-12T05:15:36.690Z,12.30
2018-09-12T05:18:05.321Z,10.83
2018-09-12T05:20:33.893Z,13.23
2018-09-12T05:23:02.490Z,13.60
2018-09-12T05:25:31.014Z,10.87
2018-09-12T05:27:59.634Z,12.80
2018-09-12T05:30:28.231Z,14.33
2018-09-12T05:32:56.770Z,12.53
2018-09-12T05:35:25.271Z,10.13
2018-09-12T05:37:53.745Z,11.50
2018-09-12T05:40:22.220Z,11.57
2018-09-12T05:42:50.841Z,12.67
2018-09-12T05:45:19.407Z,12.97
2018-09-12T05:47:47.920Z,12.33
2018-09-12T05:50:16.564Z,13.47
2018-09-12T05:52:45.289Z,11.77
2018-09-12T05:55:13.793Z,11.43
2018-09-12T05:57:42.449Z,12.43
2018-09-12T06:00:11.029Z,12.57
2018-09-12T06:02:39.604Z,13.73
2018-09-12T06:05:08.276Z,11.47
2018-09-12T06:07:36.821Z,10.57
2018-09-12T06:10:05.845Z,11.97
2018-09-12T06:12:34.842Z,12.73
2018-09-12T06:15:03.443Z,13.80
2018-09-12T06:17:31.916Z,11.50
2018-09-12T06:20:00.394Z,10.37
2018-09-12T06:22:28.910Z,13.70
2018-09-12T06:24:58.353Z,15.47
2018-09-12T06:27:26.845Z,10.83
2018-09-12T06:29:55.389Z,12.60
2018-09-12T06:32:23.901Z,13.23
2018-09-12T06:34:52.761Z,12.43
2018-09-12T06:37:21.257Z,11.40
2018-09-12T06:39:49.897Z,10.43
2018-09-12T06:42:18.389Z,13.97
2018-09-12T06:44:46.941Z,12.47
2018-09-12T06:47:15.471Z,8.83
2018-09-12T06:49:47.076Z,10.80
2018-09-12T06:52:16.973Z,10.23
2018-09-12T06:54:45.829Z,8.70
2018-09-12T06:57:14.338Z,9.53
2018-09-12T06:59:43.038Z,9.93
2018-09-12T07:02:11.570Z,10.07
2018-09-12T07:04:40.105Z,11.93
2018-09-12T07:07:08.777Z,8.80
2018-09-12T07:09:37.346Z,9.37
2018-09-12T07:12:06.023Z,11.33
2018-09-12T07:14:34.565Z,10.30
2018-09-12T07:17:03.111Z,12.67
2018-09-12T07:19:31.713Z,8.47
2018-09-12T07:22:00.290Z,8.07
2018-09-12T07:24:28.851Z,7.93
2018-09-12T07:26:57.280Z,8.93
2018-09-12T07:29:25.786Z,8.17
2018-09-12T07:31:54.529Z,6.40
2018-09-12T07:34:23.043Z,6.77
2018-09-12T07:36:51.954Z,6.20
2018-09-12T07:39:20.454Z,6.03
2018-09-12T07:41:49.223Z,7.90
2018-09-12T07:44:17.810Z,7.17
2018-09-12T07:46:46.360Z,8.13
2018-09-12T07:49:14.908Z,6.67
2018-09-12T07:51:43.398Z,8.80
2018-09-12T07:54:11.922Z,7.70
2018-09-12T07:56:40.470Z,9.07
2018-09-12T07:59:09.090Z,6.37
2018-09-12T08:01:37.733Z,9.70
2018-09-12T08:04:06.282Z,6.70
2018-09-12T08:06:34.817Z,8.77
2018-09-12T08:09:03.713Z,8.10
2018-09-12T08:11:32.241Z,6.93
2018-09-12T08:14:00.731Z,6.47
2018-09-12T08:16:29.302Z,6.03
2018-09-12T08:18:57.802Z,8.17
2018-09-12T08:21:26.345Z,6.57
2018-09-12T08:23:54.849Z,7.23
2018-09-12T08:26:23.382Z,7.90
2018-09-12T08:28:51.964Z,9.10
2018-09-12T08:31:20.634Z,8.23
2018-09-12T08:33:49.193Z,7.33
2018-09-12T08:36:17.840Z,6.73
2018-09-12T08:38:46.365Z,7.10
2018-09-12T08:41:14.934Z,8.77
2018-09-12T08:43:43.443Z,7.33
2018-09-12T08:46:11.942Z,7.17
2018-09-12T08:48:40.626Z,6.63
2018-09-12T08:51:09.382Z,6.93
2018-09-12T08:53:37.887Z,7.30
2018-09-12T08:56:06.553Z,10.97
2018-09-12T08:58:35.085Z,7.37
2018-09-12T09:01:03.637Z,6.10
2018-09-12T09:03:32.206Z,8.70
2018-09-12T09:06:00.814Z,6.37
2018-09-12T09:08:29.467Z,7.17
2018-09-12T09:10:57.949Z,6.57
2018-09-12T09:13:26.550Z,7.40
2018-09-12T09:15:55.033Z,5.80
2018-09-12T09:18:23.645Z,6.93
2018-09-12T09:20:52.197Z,8.23
2018-09-12T09:23:20.718Z,7.90
2018-09-12T09:25:50.322Z,8.27
2018-09-12T09:28:18.854Z,7.33
2018-09-12T09:30:47.441Z,12.10
2018-09-12T09:33:16.147Z,5.33
2018-09-12T09:35:44.796Z,8.80
2018-09-12T09:38:13.192Z,5.87
2018-09-12T09:40:41.857Z,6.20
2018-09-12T09:43:10.499Z,6.57
2018-09-12T09:45:38.994Z,7.50
2018-09-12T09:48:07.614Z,8.57
2018-09-12T09:50:36.135Z,8.50
2018-09-12T09:53:04.653Z,7.60
2018-09-12T09:55:33.273Z,7.47
2018-09-12T09:58:01.894Z,7.17
2018-09-12T10:00:35.900Z,6.43
2018-09-12T10:03:09.814Z,8.60
2018-09-12T10:05:44.361Z,8.90
2018-09-12T10:08:18.305Z,8.50
2018-09-12T10:10:46.869Z,7.70
2018-09-12T10:13:15.475Z,7.60
2018-09-12T10:15:44.026Z,7.07
2018-09-12T10:18:12.586Z,9.63
2018-09-12T10:20:41.442Z,9.23
2018-09-12T10:23:09.985Z,8.17
2018-09-12T10:25:38.525Z,8.07
2018-09-12T10:28:07.014Z,6.73
2018-09-12T10:30:35.738Z,8.73
2018-09-12T10:33:04.285Z,6.60
2018-09-12T10:35:32.941Z,7.43
2018-09-12T10:38:01.481Z,11.00
2018-09-12T10:40:30.081Z,9.47
2018-09-12T10:42:58.610Z,7.83
2018-09-12T10:45:27.241Z,8.33
2018-09-12T10:47:55.789Z,5.97
2018-09-12T10:50:24.340Z,7.97
2018-09-12T10:52:52.925Z,8.70
2018-09-12T10:55:21.425Z,8.67
2018-09-12T10:57:49.897Z,5.67
2018-09-12T11:00:18.522Z,8.17
2018-09-12T11:02:47.025Z,7.27
2018-09-12T11:05:15.553Z,8.07
2018-09-12T11:07:44.131Z,10.50
2018-09-12T11:10:12.818Z,7.73
2018-09-12T11:12:41.385Z,6.63
2018-09-12T11:15:10.122Z,5.53
2018-09-12T11:17:38.658Z,5.47
2018-09-12T11:20:07.606Z,5.30
2018-09-12T11:22:36.228Z,5.93
2018-09-12T11:25:04.771Z,5.37
2018-09-12T11:27:33.322Z,4.00
2018-09-12T11:30:01.904Z,6.30
2018-09-12T11:32:30.810Z,5.23
2018-09-12T11:34:59.325Z,4.50
2018-09-12T11:37:28.181Z,6.03
2018-09-12T11:39:56.796Z,6.83
2018-09-12T11:42:25.406Z,7.93
2018-09-12T11:44:53.933Z,4.97
2018-09-12T11:47:22.848Z,5.00
2018-09-12T11:49:51.417Z,5.40
2018-09-12T11:52:20.051Z,5.00
2018-09-12T11:54:48.618Z,5.87
2018-09-12T11:57:17.098Z,3.70
2018-09-12T11:59:45.667Z,5.13
2018-09-12T12:02:14.361Z,4.63
2018-09-12T12:04:43.428Z,5.43
2018-09-12T12:07:11.965Z,4.97
2018-09-12T12:09:40.705Z,5.53
2018-09-12T12:12:09.187Z,6.67
2018-09-12T12:14:37.766Z,5.93
2018-09-12T12:17:06.345Z,5.93
2018-09-12T12:19:35.522Z,5.77
2018-09-12T12:22:04.034Z,4.73
2018-09-12T12:24:32.647Z,6.00
2018-09-12T12:27:01.166Z,5.97
2018-09-12T12:29:29.649Z,5.87
2018-09-12T12:31:58.222Z,5.03
2018-09-12T12:34:26.796Z,4.33
2018-09-12T12:36:55.354Z,5.23
2018-09-12T12:39:23.822Z,5.57
2018-09-12T12:41:52.414Z,5.07
2018-09-12T12:44:21.042Z,6.23
2018-09-12T12:46:49.509Z,6.57
2018-09-12T12:49:18.090Z,4.07
2018-09-12T12:51:46.580Z,7.37
2018-09-12T12:54:16.081Z,8.83
2018-09-12T12:56:44.643Z,7.30
2018-09-12T12:59:13.180Z,9.43
2018-09-12T13:01:41.832Z,7.17
2018-09-12T13:04:11.155Z,5.53
2018-09-12T13:06:39.866Z,5.37
2018-09-12T13:09:08.838Z,4.83
2018-09-12T13:11:37.590Z,4.13
2018-09-12T13:14:06.097Z,4.00
2018-09-12T13:16:34.953Z,5.07
2018-09-12T13:19:03.722Z,4.80
2018-09-12T13:21:32.332Z,5.27
2018-09-12T13:24:00.823Z,5.10
2018-09-12T13:26:29.374Z,3.90
2018-09-12T13:28:57.847Z,6.47
2018-09-12T13:31:26.381Z,6.17
2018-09-12T13:33:55.039Z,6.17
2018-09-12T13:36:23.701Z,5.53
2018-09-12T13:38:52.289Z,7.63
2018-09-12T13:41:20.832Z,7.03
2018-09-12T13:43:49.838Z,5.23
2018-09-12T13:46:18.552Z,4.77
2018-09-12T13:48:47.109Z,4.93
2018-09-12T13:51:15.637Z,4.73
2018-09-12T13:53:44.145Z,6.93
2018-09-12T13:56:12.789Z,7.13
2018-09-12T13:58:41.329Z,4.37
2018-09-12T14:01:09.879Z,9.37
2018-09-12T14:03:38.651Z,8.03
2018-09-12T14:06:07.227Z,6.37
2018-09-12T14:08:35.733Z,7.03
2018-09-12T14:11:06.526Z,8.17
2018-09-12T14:13:35.370Z,8.53
2018-09-12T14:16:03.885Z,6.33
2018-09-12T14:18:32.529Z,8.03
2018-09-12T14:21:01.083Z,5.20
2018-09-12T14:23:29.574Z,6.10
2018-09-12T14:25:58.137Z,10.63
2018-09-12T14:28:26.686Z,7.67
2018-09-12T14:30:55.198Z,6.60
2018-09-12T14:33:23.886Z,6.27
2018-09-12T14:35:52.342Z,8.07
2018-09-12T14:38:21.240Z,4.77
2018-09-12T14:40:49.845Z,6.97
2018-09-12T14:43:18.312Z,4.53
2018-09-12T14:45:46.830Z,3.97
2018-09-12T14:48:16.111Z,5.57
2018-09-12T14:50:45.114Z,4.73
2018-09-12T14:53:13.681Z,5.57
2018-09-12T14:55:42.225Z,6.07
2018-09-12T14:58:10.750Z,5.00
2018-09-12T15:00:39.470Z,5.03
2018-09-12T15:03:07.965Z,7.03
2018-09-12T15:05:36.437Z,6.93
2018-09-12T15:08:04.991Z,5.63
2018-09-12T15:10:33.473Z,6.53
2018-09-12T15:13:02.042Z,4.67
2018-09-12T15:15:30.649Z,4.90
2018-09-12T15:17:59.312Z,5.43
2018-09-12T15:20:28.594Z,6.80
2018-09-12T15:22:57.163Z,5.83
2018-09-12T15:25:25.735Z,7.00
2018-09-12T15:27:54.207Z,5.43
2018-09-12T15:30:22.906Z,5.23
2018-09-12T15:32:51.534Z,4.90
2018-09-12T15:35:20.125Z,6.37
2018-09-12T15:37:48.625Z,6.97
2018-09-12T15:40:17.189Z,5.13
2018-09-12T15:42:45.912Z,5.97
2018-09-12T15:45:14.633Z,8.43
2018-09-12T15:47:43.247Z,6.27
2018-09-12T15:50:11.873Z,8.07
2018-09-12T15:52:40.496Z,7.47
2018-09-12T15:55:09.031Z,6.93
2018-09-12T15:57:37.662Z,6.73
2018-09-12T16:00:06.682Z,8.43
2018-09-12T16:02:35.356Z,6.37
2018-09-12T16:05:03.933Z,5.47
2018-09-12T16:07:32.648Z,6.43
2018-09-12T16:10:02.056Z,5.87
2018-09-12T16:12:30.651Z,5.43
2018-09-12T16:14:59.194Z,9.73
2018-09-12T16:17:27.871Z,5.23
2018-09-12T16:19:56.454Z,5.53
2018-09-12T16:22:24.983Z,7.00
2018-09-12T16:24:53.606Z,7.73
2018-09-12T16:48:30.553Z,8.83
2018-09-12T16:50:59.098Z,12.73
2018-09-12T16:53:27.725Z,9.33
2018-09-12T16:55:56.592Z,10.23
2018-09-12T16:58:25.377Z,12.07
2018-09-12T17:00:54.211Z,14.67
2018-09-12T17:03:23.063Z,8.83
2018-09-12T17:05:51.612Z,11.50
2018-09-12T17:08:20.159Z,12.33
2018-09-12T17:10:48.949Z,13.27
2018-09-12T17:13:17.610Z,13.47
2018-09-12T17:15:46.719Z,14.57
2018-09-12T17:18:15.718Z,18.43
2018-09-12T17:20:44.645Z,17.30
2018-09-12T17:23:13.228Z,20.13
2018-09-12T17:25:41.734Z,17.53
2018-09-12T17:28:10.609Z,28.03
2018-09-12T17:30:39.176Z,47.50
2018-09-12T17:33:08.026Z,46.07
2018-09-12T17:35:36.780Z,31.20
2018-09-12T17:38:05.370Z,28.43
2018-09-12T17:40:33.950Z,30.70
2018-09-12T17:43:02.623Z,27.23
2018-09-12T17:45:31.262Z,24.93
2018-09-12T17:48:00.002Z,26.97
2018-09-12T17:50:28.905Z,20.70
2018-09-12T17:52:57.542Z,23.07
2018-09-12T17:55:26.925Z,30.80
2018-09-12T17:57:55.758Z,27.70
2018-09-12T18:00:24.716Z,30.17
2018-09-12T18:02:53.345Z,29.10
2018-09-12T18:05:21.874Z,24.53
2018-09-12T18:07:52.199Z,21.83
2018-09-12T18:10:22.991Z,23.53
2018-09-12T18:12:53.669Z,18.67
2018-09-12T18:15:24.810Z,21.00
2018-09-12T18:17:53.833Z,19.73
2018-09-12T18:20:23.064Z,22.77
2018-09-12T18:22:52.009Z,22.80
2018-09-12T18:25:20.849Z,30.00
2018-09-12T18:27:49.514Z,35.33
2018-09-12T18:30:18.814Z,32.30
2018-09-12T18:32:47.603Z,34.80
2018-09-12T18:35:16.297Z,28.87
2018-09-12T18:37:45.420Z,28.83
2018-09-12T18:40:14.487Z,25.83
2018-09-12T18:42:43.244Z,27.90
2018-09-12T18:45:11.941Z,29.93
2018-09-12T18:47:40.691Z,30.03
2018-09-12T18:50:09.916Z,28.60
2018-09-12T18:52:38.798Z,31.00
2018-09-12T18:55:07.583Z,34.73
2018-09-12T18:57:37.271Z,33.63
2018-09-12T19:00:06.401Z,32.43
2018-09-12T19:02:35.227Z,38.20
2018-09-12T19:05:03.965Z,38.47
2018-09-12T19:07:32.906Z,37.37
2018-09-12T19:10:01.916Z,33.13
2018-09-12T19:12:30.542Z,31.73
2018-09-12T19:14:59.132Z,35.40
2018-09-12T19:17:28.060Z,36.97
2018-09-12T19:19:56.791Z,36.90
2018-09-12T19:22:25.584Z,37.70
2018-09-12T19:24:54.188Z,35.77
2018-09-12T19:27:23.002Z,33.97
2018-09-12T19:29:51.610Z,43.57
2018-09-12T19:32:22.783Z,44.87
2018-09-12T19:34:51.606Z,45.83
2018-09-12T19:37:20.254Z,43.50
2018-09-12T19:39:48.901Z,40.03
2018-09-12T19:42:17.821Z,43.93
2018-09-12T19:44:46.414Z,33.70
2018-09-12T19:47:15.214Z,32.23
2018-09-12T19:49:44.023Z,24.97
2018-09-12T19:52:12.880Z,26.10
2018-09-12T19:54:41.670Z,26.57
2018-09-12T19:57:10.663Z,23.07
2018-09-12T19:59:39.447Z,23.40
2018-09-12T20:02:08.132Z,23.00
2018-09-12T20:04:37.028Z,23.23
2018-09-12T20:07:05.855Z,25.67
2018-09-12T20:09:36.238Z,25.40
2018-09-12T20:12:04.972Z,28.57
2018-09-12T20:14:34.838Z,23.47
2018-09-12T20:17:03.620Z,28.97
2018-09-12T20:19:32.411Z,25.10
2018-09-12T20:22:01.304Z,25.70
2018-09-12T20:24:30.004Z,23.77
2018-09-12T20:26:58.593Z,25.57
2018-09-12T20:29:27.115Z,22.67
2018-09-12T20:31:55.615Z,26.30
2018-09-12T20:34:24.455Z,25.47
2018-09-12T20:36:53.317Z,22.00
2018-09-12T20:39:22.244Z,23.03
2018-09-12T20:41:50.725Z,27.50
2018-09-12T20:44:20.896Z,24.20
2018-09-12T20:46:49.697Z,24.50
2018-09-12T20:49:18.411Z,24.33
2018-09-12T20:51:47.102Z,26.07
2018-09-12T20:54:18.716Z,25.57
2018-09-12T20:56:48.128Z,24.43
2018-09-12T20:59:17.079Z,29.03
2018-09-12T21:01:45.923Z,23.90
2018-09-12T21:04:15.571Z,28.37
2018-09-12T21:06:45.250Z,25.03
2018-09-12T21:09:14.985Z,25.60
2018-09-12T21:11:43.838Z,24.83
2018-09-12T21:14:12.726Z,26.40
2018-09-12T21:16:41.655Z,27.00
2018-09-12T21:19:10.409Z,31.60
2018-09-12T21:21:39.009Z,23.87
2018-09-12T21:24:09.644Z,24.10
2018-09-12T21:26:39.386Z,21.40
2018-09-12T21:29:08.421Z,23.27
2018-09-12T21:31:36.999Z,21.33
2018-09-12T21:34:05.892Z,25.17
2018-09-12T21:36:34.679Z,26.00
2018-09-12T21:39:03.443Z,24.33
2018-09-12T21:41:32.149Z,23.47
2018-09-12T21:44:00.973Z,22.50
2018-09-12T21:46:29.594Z,21.13
2018-09-12T21:48:58.078Z,19.40
2018-09-12T21:51:26.695Z,25.53
2018-09-12T21:53:55.368Z,20.77
2018-09-12T21:56:23.938Z,20.90
2018-09-12T21:58:52.507Z,24.73
2018-09-12T22:01:25.040Z,22.53
2018-09-12T22:03:54.401Z,22.87
2018-09-12T22:06:24.551Z,23.30
2018-09-12T22:08:53.110Z,22.80
2018-09-12T22:11:22.120Z,22.93
2018-09-12T22:13:50.821Z,25.83
2018-09-12T22:16:19.342Z,23.80
2018-09-12T22:18:47.835Z,22.73
2018-09-12T22:21:16.647Z,22.13
2018-09-12T22:23:45.227Z,24.83
2018-09-12T22:26:13.753Z,22.30
2018-09-12T22:28:42.408Z,26.30
2018-09-12T22:31:11.044Z,25.47
2018-09-12T22:33:39.683Z,25.27
2018-09-12T22:36:08.557Z,27.67
2018-09-12T22:38:37.051Z,24.67
2018-09-12T22:41:05.635Z,25.30
2018-09-12T22:43:34.509Z,27.47
2018-09-12T22:46:03.100Z,29.80
2018-09-12T22:48:32.097Z,28.10
2018-09-12T22:51:01.142Z,26.47
2018-09-12T22:53:29.677Z,26.43
2018-09-12T22:55:58.580Z,29.10
2018-09-12T22:58:27.436Z,28.07
2018-09-12T23:00:56.483Z,27.00
2018-09-12T23:03:25.425Z,24.70
2018-09-12T23:05:53.931Z,22.20
2018-09-12T23:08:22.531Z,28.10
2018-09-12T23:10:52.086Z,25.80
2018-09-12T23:13:20.578Z,28.07
2018-09-12T23:15:49.346Z,25.53
2018-09-12T23:18:18.266Z,26.57
2018-09-12T23:20:46.943Z,22.63
2018-09-12T23:23:15.501Z,24.57
2018-09-12T23:25:44.102Z,27.23
2018-09-12T23:28:12.572Z,25.30
2018-09-12T23:30:41.510Z,23.17
2018-09-12T23:33:10.069Z,21.10
2018-09-12T23:35:38.854Z,21.17
2018-09-12T23:38:07.538Z,20.80
2018-09-12T23:40:36.225Z,21.77
2018-09-12T23:43:04.882Z,19.17
2018-09-12T23:45:33.506Z,18.50
2018-09-12T23:48:02.222Z,22.27
2018-09-12T23:50:30.849Z,22.60
2018-09-12T23:52:59.460Z,21.80
2018-09-12T23:55:28.351Z,23.03
2018-09-12T23:57:57.144Z,21.33
